Pagrindinis puslapis
METAR-TAF:

METAR-TAF

Oro uostai :

Florencija, Italija

platuma: 43-48N, ilguma: 011-12E, Aukštis: 40 m

Dabartinis oras

Ataskaita buvo paskelbta 31 minutes, ne 10:20 UTC
Vėjas 4 kt iš Pietvakarių, svyruoja nuo Pietų/Pietryčių ir Vakarų/Šiaurės Vakarų
Temperatūra 23°C
Drėgmė 33%
Slėgis 1022 hPa
Matomumas 10 km arba daugiau
nėra debesų žemiau 1500 m ir nėra kamuolinių lietaus debesų

METAR: LIRQ 211020Z 22004KT 150V300 CAVOK 23/06 Q1022

Laikas: 12:51 (10:51 UTC)

Prognozė

Ataskaita buvo paskelbta 5 valandos ir 51 minutes, ne 05:00 UTC
Prognozė galioja nuo 21 metu 06 UTC su 22 metu 06 UTC
Vėjas 8 kt iš Šiaurės/Šiaurės Rytų
Matomumas 10 km arba daugiau
Mažai debesys ne aukštis 3000 ft
Laikinai
nuo 21 metu 21 UTC su 22 metu 06 UTC
lietus

TAF: LIRQ 210500Z 2106/2206 03008KT 9999 FEW030 TEMPO 2121/2206 RA

Orai ataskaitas ir orų prognozės (METAR, TAF).

turimą stotys yra geltonos ir raudonos taškus žemėlapyje.

Perkelti pele per norėdami pamatyti stoties vardą.

Tada spustelėkite, norėdami matyti oro stebėjimo ir prognozės.

Norėdami pakeisti žemėlapį: spustelėkite ant žalios mygtukų su juodo kryžiaus žemyn,; žalią mygtuką su brūkšneliu, jei norite nutolinti; arba žalių rodyklių gretimoms žemėlapius.


METAR-TAF: